LLY weather

South Jersey Regional Airport
Mount Holly, New Jersey, United States

Public forecast

Using degrees Fahrenheit for public forecast. Weather courtesy of forecast.io.

METAR (pilot weather report)

Retrieved 2019/06/26 00:54 UTC (54 minutes ago):

KVAY 260054Z AUTO 27004KT 10SM CLR 27/17 A2987 RMK AO2 SLP115 T02720167

TAF (pilot weather forecast)

Forecast is more than 12 hours old.

Closest forecast is Northeast Philadelphia Airport, 11.3 nm (20.9 km) NW. Retrieved 2019/06/25 00:22 UTC (1 day ago):

TAF KPNE 252320Z 2600/2624 29006KT P6SM SCT200 FM260900 VRB04KT P6SM FEW250 FM261800 27005KT P6SM FEW200